Accomac, Pennsylvania
Current Conditions -  °F | °C
As of 12:56 PM on Wednesday 26 Nov 2014 (Local Time) from KMDT Reporting Station
Light Snow Light Snow  
Wind Chill: 29°   Ceiling: 400
Heat Index: 33°   Visibility: 0.75mi
Dew Point: 31°   Wind: 5mph
Humidity: 92%   Direction: 330°NNW
Pressure: 29.99"   Gusts: NA
Location:  40.0152°N, 76.5974°W
Report Text: KMDT 261756Z 33004KT 3/4SM R13/5000VP6000FT -SN BR OVC004 01/M01 A2999 RMK AO2 SLP158 P0007 60059 T00061006 10039 20000 58042
Loading
Personal Weather Stations






























Interactive Weather Map New forecast layout! Learn more

10-Day Weather Forecast

Advertisements
Track Severe Weather on mobile